sensor_id;sensor_type;location;lat;lon;timestamp;pressure;altitude;pressure_sealevel;temperature;humidity
64933;BME280;51446;53.850;10.662;2023-05-01T00:00:50;102009.44;;;5.73;100.00
64933;BME280;51446;53.850;10.662;2023-05-01T00:03:16;102008.28;;;5.68;100.00
64933;BME280;51446;53.850;10.662;2023-05-01T00:05:43;101995.38;;;5.69;100.00
64933;BME280;51446;53.850;10.662;2023-05-01T00:08:08;102000.25;;;5.63;100.00
64933;BME280;51446;53.850;10.662;2023-05-01T00:10:34;101992.94;;;5.72;100.00
64933;BME280;51446;53.850;10.662;2023-05-01T00:13:00;101984.44;;;5.60;100.00
64933;BME280;51446;53.850;10.662;2023-05-01T00:15:26;101992.78;;;5.69;100.00
64933;BME280;51446;53.850;10.662;2023-05-01T00:17:52;101995.44;;;5.71;100.00
64933;BME280;51446;53.850;10.662;2023-05-01T00:20:18;101994.19;;;5.64;100.00
64933;BME280;51446;53.850;10.662;2023-05-01T00:22:43;101992.31;;;5.62;100.00
64933;BME280;51446;53.850;10.662;2023-05-01T00:25:08;101991.19;;;5.56;100.00
64933;BME280;51446;53.850;10.662;2023-05-01T00:27:34;101985.19;;;5.43;100.00
64933;BME280;51446;53.850;10.662;2023-05-01T00:30:00;101989.06;;;5.49;100.00
64933;BME280;51446;53.850;10.662;2023-05-01T00:32:25;101987.94;;;5.29;100.00
64933;BME280;51446;53.850;10.662;2023-05-01T00:34:51;101988.63;;;5.42;100.00
64933;BME280;51446;53.850;10.662;2023-05-01T00:37:16;101984.91;;;5.21;100.00
64933;BME280;51446;53.850;10.662;2023-05-01T00:39:41;101982.47;;;5.10;100.00
64933;BME280;51446;53.850;10.662;2023-05-01T00:42:06;101978.19;;;5.10;100.00
64933;BME280;51446;53.850;10.662;2023-05-01T00:44:32;101977.81;;;5.04;100.00
64933;BME280;51446;53.850;10.662;2023-05-01T00:46:57;101975.03;;;5.01;100.00
64933;BME280;51446;53.850;10.662;2023-05-01T00:49:25;101963.84;;;4.87;100.00
64933;BME280;51446;53.850;10.662;2023-05-01T00:51:51;101965.19;;;4.95;100.00
64933;BME280;51446;53.850;10.662;2023-05-01T00:54:20;101972.81;;;4.92;100.00
64933;BME280;51446;53.850;10.662;2023-05-01T00:56:50;101973.88;;;4.81;100.00
64933;BME280;51446;53.850;10.662;2023-05-01T00:59:15;101970.75;;;4.72;100.00
64933;BME280;51446;53.850;10.662;2023-05-01T01:01:41;101968.59;;;4.79;100.00
64933;BME280;51446;53.850;10.662;2023-05-01T01:04:07;101966.97;;;4.66;100.00
64933;BME280;51446;53.850;10.662;2023-05-01T01:06:47;101964.47;;;4.83;100.00
64933;BME280;51446;53.850;10.662;2023-05-01T01:09:30;101962.50;;;4.94;100.00
64933;BME280;51446;53.850;10.662;2023-05-01T01:14:52;101963.03;;;4.88;100.00
64933;BME280;51446;53.850;10.662;2023-05-01T01:17:44;101949.06;;;4.86;100.00
64933;BME280;51446;53.850;10.662;2023-05-01T01:22:46;101948.25;;;4.87;100.00
64933;BME280;51446;53.850;10.662;2023-05-01T01:28:14;101941.63;;;4.77;100.00
64933;BME280;51446;53.850;10.662;2023-05-01T01:31:13;101948.25;;;4.72;100.00
64933;BME280;51446;53.850;10.662;2023-05-01T01:34:07;101951.47;;;4.68;100.00
64933;BME280;51446;53.850;10.662;2023-05-01T01:41:48;101949.03;;;4.41;100.00
64933;BME280;51446;53.850;10.662;2023-05-01T01:44:24;101947.34;;;4.42;100.00
64933;BME280;51446;53.850;10.662;2023-05-01T01:46:53;101939.78;;;4.16;100.00
64933;BME280;51446;53.850;10.662;2023-05-01T01:49:21;101944.03;;;4.29;100.00
64933;BME280;51446;53.850;10.662;2023-05-01T01:51:49;101947.50;;;4.45;100.00
64933;BME280;51446;53.850;10.662;2023-05-01T01:54:21;101948.03;;;4.39;100.00
64933;BME280;51446;53.850;10.662;2023-05-01T01:56:48;101945.38;;;4.53;100.00
64933;BME280;51446;53.850;10.662;2023-05-01T01:59:14;101943.59;;;4.37;100.00
64933;BME280;51446;53.850;10.662;2023-05-01T02:01:42;101935.41;;;4.30;100.00
64933;BME280;51446;53.850;10.662;2023-05-01T02:04:08;101942.56;;;4.34;100.00
64933;BME280;51446;53.850;10.662;2023-05-01T02:06:36;101932.72;;;4.29;100.00
64933;BME280;51446;53.850;10.662;2023-05-01T02:09:02;101937.72;;;4.26;100.00
64933;BME280;51446;53.850;10.662;2023-05-01T02:11:30;101928.88;;;4.22;100.00
64933;BME280;51446;53.850;10.662;2023-05-01T02:13:58;101932.28;;;4.21;100.00
64933;BME280;51446;53.850;10.662;2023-05-01T02:16:26;101926.13;;;4.06;100.00
64933;BME280;51446;53.850;10.662;2023-05-01T02:18:53;101926.38;;;3.95;100.00
64933;BME280;51446;53.850;10.662;2023-05-01T02:21:19;101926.66;;;4.00;100.00
64933;BME280;51446;53.850;10.662;2023-05-01T02:23:45;101915.56;;;4.03;100.00
64933;BME280;51446;53.850;10.662;2023-05-01T02:26:14;101916.19;;;3.98;100.00
64933;BME280;51446;53.850;10.662;2023-05-01T02:28:41;101913.59;;;3.98;100.00
64933;BME280;51446;53.850;10.662;2023-05-01T02:31:08;101911.19;;;4.02;100.00
64933;BME280;51446;53.850;10.662;2023-05-01T02:33:33;101912.91;;;4.16;100.00
64933;BME280;51446;53.850;10.662;2023-05-01T02:35:58;101901.28;;;4.24;100.00
64933;BME280;51446;53.850;10.662;2023-05-01T02:38:23;101905.03;;;4.14;100.00
64933;BME280;51446;53.850;10.662;2023-05-01T02:40:51;101894.56;;;4.13;100.00
64933;BME280;51446;53.850;10.662;2023-05-01T02:43:19;101893.75;;;4.14;100.00
64933;BME280;51446;53.850;10.662;2023-05-01T02:45:46;101895.56;;;4.15;100.00
64933;BME280;51446;53.850;10.662;2023-05-01T02:48:14;101888.13;;;4.21;100.00
64933;BME280;51446;53.850;10.662;2023-05-01T02:50:43;101887.44;;;4.24;100.00
64933;BME280;51446;53.850;10.662;2023-05-01T02:53:11;101889.38;;;4.13;100.00
64933;BME280;51446;53.850;10.662;2023-05-01T02:55:37;101876.72;;;4.04;100.00
64933;BME280;51446;53.850;10.662;2023-05-01T02:58:03;101884.78;;;3.94;100.00
64933;BME280;51446;53.850;10.662;2023-05-01T03:00:28;101875.44;;;3.82;100.00
64933;BME280;51446;53.850;10.662;2023-05-01T03:02:54;101875.34;;;3.81;100.00
64933;BME280;51446;53.850;10.662;2023-05-01T03:05:19;101876.72;;;3.89;100.00
64933;BME280;51446;53.850;10.662;2023-05-01T03:07:45;101868.94;;;3.89;100.00
64933;BME280;51446;53.850;10.662;2023-05-01T03:10:11;101864.97;;;3.96;100.00
64933;BME280;51446;53.850;10.662;2023-05-01T03:12:37;101865.91;;;3.96;100.00
64933;BME280;51446;53.850;10.662;2023-05-01T03:15:02;101860.31;;;3.90;100.00
64933;BME280;51446;53.850;10.662;2023-05-01T03:17:27;101864.81;;;3.93;100.00
64933;BME280;51446;53.850;10.662;2023-05-01T03:19:53;101858.88;;;3.80;100.00
64933;BME280;51446;53.850;10.662;2023-05-01T03:22:18;101860.66;;;3.81;100.00
64933;BME280;51446;53.850;10.662;2023-05-01T03:24:44;101859.59;;;3.78;100.00
64933;BME280;51446;53.850;10.662;2023-05-01T03:27:11;101852.16;;;3.84;100.00
64933;BME280;51446;53.850;10.662;2023-05-01T03:29:36;101846.28;;;3.87;100.00
64933;BME280;51446;53.850;10.662;2023-05-01T03:32:04;101849.13;;;3.76;100.00
64933;BME280;51446;53.850;10.662;2023-05-01T03:34:30;101845.25;;;3.70;100.00
64933;BME280;51446;53.850;10.662;2023-05-01T03:36:55;101851.22;;;3.69;100.00
64933;BME280;51446;53.850;10.662;2023-05-01T03:39:21;101856.94;;;3.63;100.00
64933;BME280;51446;53.850;10.662;2023-05-01T03:41:46;101841.88;;;3.71;100.00
64933;BME280;51446;53.850;10.662;2023-05-01T03:44:11;101845.59;;;3.76;100.00
64933;BME280;51446;53.850;10.662;2023-05-01T03:46:37;101847.59;;;3.80;100.00
64933;BME280;51446;53.850;10.662;2023-05-01T03:49:02;101843.78;;;4.03;100.00
64933;BME280;51446;53.850;10.662;2023-05-01T03:51:27;101840.84;;;4.42;100.00
64933;BME280;51446;53.850;10.662;2023-05-01T03:53:53;101836.47;;;4.26;100.00
64933;BME280;51446;53.850;10.662;2023-05-01T03:56:20;101831.81;;;4.50;100.00
64933;BME280;51446;53.850;10.662;2023-05-01T03:58:46;101830.63;;;4.45;100.00
64933;BME280;51446;53.850;10.662;2023-05-01T04:01:11;101824.00;;;4.50;100.00
64933;BME280;51446;53.850;10.662;2023-05-01T04:03:36;101823.19;;;4.66;100.00
64933;BME280;51446;53.850;10.662;2023-05-01T04:06:02;101823.06;;;4.79;100.00
64933;BME280;51446;53.850;10.662;2023-05-01T04:08:27;101822.97;;;4.78;100.00
64933;BME280;51446;53.850;10.662;2023-05-01T04:10:52;101820.59;;;4.97;100.00
64933;BME280;51446;53.850;10.662;2023-05-01T04:13:17;101816.34;;;5.14;100.00
64933;BME280;51446;53.850;10.662;2023-05-01T04:15:44;101814.47;;;5.12;100.00
64933;BME280;51446;53.850;10.662;2023-05-01T04:18:10;101820.78;;;5.17;100.00
64933;BME280;51446;53.850;10.662;2023-05-01T04:20:35;101817.31;;;5.33;100.00
64933;BME280;51446;53.850;10.662;2023-05-01T04:23:00;101806.69;;;5.45;100.00
64933;BME280;51446;53.850;10.662;2023-05-01T04:25:26;101812.19;;;5.67;100.00
64933;BME280;51446;53.850;10.662;2023-05-01T04:27:51;101801.56;;;5.79;100.00
64933;BME280;51446;53.850;10.662;2023-05-01T04:30:17;101801.13;;;6.04;100.00
64933;BME280;51446;53.850;10.662;2023-05-01T04:32:42;101796.31;;;5.96;100.00
64933;BME280;51446;53.850;10.662;2023-05-01T04:35:07;101801.84;;;6.18;100.00
64933;BME280;51446;53.850;10.662;2023-05-01T04:37:33;101796.06;;;6.07;100.00
64933;BME280;51446;53.850;10.662;2023-05-01T04:39:59;101793.78;;;6.14;100.00
64933;BME280;51446;53.850;10.662;2023-05-01T04:42:31;101782.25;;;6.27;100.00
64933;BME280;51446;53.850;10.662;2023-05-01T04:44:57;101781.09;;;6.56;100.00
64933;BME280;51446;53.850;10.662;2023-05-01T04:47:25;101780.91;;;6.89;100.00
64933;BME280;51446;53.850;10.662;2023-05-01T04:49:50;101773.66;;;7.01;100.00
64933;BME280;51446;53.850;10.662;2023-05-01T04:52:16;101769.09;;;6.77;100.00
64933;BME280;51446;53.850;10.662;2023-05-01T04:54:41;101767.47;;;6.62;100.00
64933;BME280;51446;53.850;10.662;2023-05-01T04:57:06;101759.84;;;6.48;100.00
64933;BME280;51446;53.850;10.662;2023-05-01T04:59:32;101756.22;;;6.45;100.00
64933;BME280;51446;53.850;10.662;2023-05-01T05:01:57;101764.34;;;6.33;100.00
64933;BME280;51446;53.850;10.662;2023-05-01T05:04:22;101767.91;;;6.53;100.00
64933;BME280;51446;53.850;10.662;2023-05-01T05:06:48;101765.84;;;6.46;100.00
64933;BME280;51446;53.850;10.662;2023-05-01T05:09:13;101759.97;;;6.50;100.00
64933;BME280;51446;53.850;10.662;2023-05-01T05:11:38;101764.84;;;6.62;100.00
64933;BME280;51446;53.850;10.662;2023-05-01T05:14:04;101762.75;;;6.72;100.00
64933;BME280;51446;53.850;10.662;2023-05-01T05:16:29;101763.66;;;6.73;100.00
64933;BME280;51446;53.850;10.662;2023-05-01T05:18:55;101765.34;;;6.72;100.00
64933;BME280;51446;53.850;10.662;2023-05-01T05:21:21;101760.13;;;7.10;100.00
64933;BME280;51446;53.850;10.662;2023-05-01T05:23:46;101759.59;;;7.17;100.00
64933;BME280;51446;53.850;10.662;2023-05-01T05:26:12;101767.94;;;7.28;100.00
64933;BME280;51446;53.850;10.662;2023-05-01T05:28:37;101765.50;;;7.33;100.00
64933;BME280;51446;53.850;10.662;2023-05-01T05:31:02;101759.81;;;7.41;100.00
64933;BME280;51446;53.850;10.662;2023-05-01T05:33:28;101755.66;;;7.66;100.00
64933;BME280;51446;53.850;10.662;2023-05-01T05:35:53;101751.81;;;7.77;100.00
64933;BME280;51446;53.850;10.662;2023-05-01T05:38:18;101746.22;;;8.10;100.00
64933;BME280;51446;53.850;10.662;2023-05-01T05:40:44;101752.03;;;8.03;100.00
64933;BME280;51446;53.850;10.662;2023-05-01T05:43:09;101751.78;;;7.97;100.00
64933;BME280;51446;53.850;10.662;2023-05-01T05:45:35;101748.72;;;8.07;100.00
64933;BME280;51446;53.850;10.662;2023-05-01T05:48:01;101756.97;;;8.39;100.00
64933;BME280;51446;53.850;10.662;2023-05-01T05:50:26;101758.50;;;8.76;100.00
64933;BME280;51446;53.850;10.662;2023-05-01T05:52:51;101756.03;;;8.81;100.00
64933;BME280;51446;53.850;10.662;2023-05-01T05:55:17;101757.06;;;8.84;100.00
64933;BME280;51446;53.850;10.662;2023-05-01T05:57:42;101760.47;;;8.82;100.00
64933;BME280;51446;53.850;10.662;2023-05-01T06:00:07;101759.69;;;8.84;100.00
64933;BME280;51446;53.850;10.662;2023-05-01T06:02:34;101752.91;;;8.90;100.00
64933;BME280;51446;53.850;10.662;2023-05-01T06:05:00;101746.19;;;8.96;100.00
64933;BME280;51446;53.850;10.662;2023-05-01T06:07:25;101748.44;;;9.34;100.00
64933;BME280;51446;53.850;10.662;2023-05-01T06:09:50;101747.44;;;9.54;100.00
64933;BME280;51446;53.850;10.662;2023-05-01T06:12:16;101743.97;;;9.80;98.78
64933;BME280;51446;53.850;10.662;2023-05-01T06:14:41;101744.75;;;10.03;93.68
64933;BME280;51446;53.850;10.662;2023-05-01T06:17:07;101730.84;;;10.89;87.97
64933;BME280;51446;53.850;10.662;2023-05-01T06:19:32;101728.31;;;12.21;79.83
64933;BME280;51446;53.850;10.662;2023-05-01T06:21:57;101736.44;;;13.51;70.26
64933;BME280;51446;53.850;10.662;2023-05-01T06:24:22;101739.34;;;14.17;63.68
64933;BME280;51446;53.850;10.662;2023-05-01T06:26:48;101727.28;;;13.78;62.47
64933;BME280;51446;53.850;10.662;2023-05-01T06:29:13;101725.84;;;15.15;58.14
64933;BME280;51446;53.850;10.662;2023-05-01T06:31:38;101721.22;;;15.78;55.22
64933;BME280;51446;53.850;10.662;2023-05-01T06:34:03;101715.50;;;15.36;53.90
64933;BME280;51446;53.850;10.662;2023-05-01T06:36:29;101718.78;;;15.17;54.11
64933;BME280;51446;53.850;10.662;2023-05-01T06:38:55;101711.72;;;14.48;55.03
64933;BME280;51446;53.850;10.662;2023-05-01T06:41:20;101700.84;;;14.88;54.81
64933;BME280;51446;53.850;10.662;2023-05-01T06:43:46;101695.47;;;15.60;53.45
64933;BME280;51446;53.850;10.662;2023-05-01T06:46:11;101699.34;;;15.93;50.60
64933;BME280;51446;53.850;10.662;2023-05-01T06:48:36;101690.28;;;15.68;52.18
64933;BME280;51446;53.850;10.662;2023-05-01T06:51:02;101691.91;;;16.65;51.50
64933;BME280;51446;53.850;10.662;2023-05-01T06:53:27;101692.91;;;16.86;51.94
64933;BME280;51446;53.850;10.662;2023-05-01T06:55:52;101694.00;;;17.51;48.02
64933;BME280;51446;53.850;10.662;2023-05-01T06:58:17;101692.13;;;17.07;47.09
64933;BME280;51446;53.850;10.662;2023-05-01T07:00:42;101685.91;;;16.97;45.48
64933;BME280;51446;53.850;10.662;2023-05-01T07:03:08;101680.59;;;16.93;47.94
64933;BME280;51446;53.850;10.662;2023-05-01T07:05:33;101684.38;;;18.11;44.94
64933;BME280;51446;53.850;10.662;2023-05-01T07:07:58;101670.19;;;17.82;43.76
64933;BME280;51446;53.850;10.662;2023-05-01T07:10:25;101667.50;;;18.40;44.31
64933;BME280;51446;53.850;10.662;2023-05-01T07:12:50;101659.41;;;18.81;43.37
64933;BME280;51446;53.850;10.662;2023-05-01T07:15:15;101663.09;;;18.35;42.49
64933;BME280;51446;53.850;10.662;2023-05-01T07:17:41;101660.47;;;18.15;43.91
64933;BME280;51446;53.850;10.662;2023-05-01T07:20:06;101654.19;;;18.49;42.81
64933;BME280;51446;53.850;10.662;2023-05-01T07:22:32;101655.72;;;19.07;41.85
64933;BME280;51446;53.850;10.662;2023-05-01T07:24:57;101648.94;;;18.09;43.21
64933;BME280;51446;53.850;10.662;2023-05-01T07:27:25;101648.72;;;18.94;42.21
64933;BME280;51446;53.850;10.662;2023-05-01T07:29:50;101648.56;;;19.21;41.07
64933;BME280;51446;53.850;10.662;2023-05-01T07:32:16;101651.47;;;18.66;41.67
64933;BME280;51446;53.850;10.662;2023-05-01T07:34:41;101649.63;;;18.91;41.92
64933;BME280;51446;53.850;10.662;2023-05-01T07:37:06;101649.66;;;18.79;42.07
64933;BME280;51446;53.850;10.662;2023-05-01T07:39:32;101642.56;;;18.76;42.29
64933;BME280;51446;53.850;10.662;2023-05-01T07:41:57;101643.09;;;19.49;40.46
64933;BME280;51446;53.850;10.662;2023-05-01T07:44:22;101636.91;;;20.42;39.10
64933;BME280;51446;53.850;10.662;2023-05-01T07:46:48;101626.06;;;19.67;38.06
64933;BME280;51446;53.850;10.662;2023-05-01T07:49:13;101629.16;;;19.10;41.14
64933;BME280;51446;53.850;10.662;2023-05-01T07:51:38;101625.88;;;19.92;38.95
64933;BME280;51446;53.850;10.662;2023-05-01T07:54:03;101628.59;;;20.74;38.52
64933;BME280;51446;53.850;10.662;2023-05-01T07:56:29;101624.16;;;19.89;38.32
64933;BME280;51446;53.850;10.662;2023-05-01T07:58:55;101624.78;;;18.97;37.75
64933;BME280;51446;53.850;10.662;2023-05-01T08:01:21;101619.72;;;18.30;39.21
64933;BME280;51446;53.850;10.662;2023-05-01T08:03:46;101608.94;;;18.72;38.72
64933;BME280;51446;53.850;10.662;2023-05-01T08:06:11;101610.53;;;19.09;38.35
64933;BME280;51446;53.850;10.662;2023-05-01T08:08:36;101613.13;;;19.21;37.86
64933;BME280;51446;53.850;10.662;2023-05-01T08:11:02;101610.31;;;19.44;38.04
64933;BME280;51446;53.850;10.662;2023-05-01T08:13:27;101600.72;;;20.25;38.16
64933;BME280;51446;53.850;10.662;2023-05-01T08:15:52;101604.66;;;20.68;37.13
64933;BME280;51446;53.850;10.662;2023-05-01T08:18:18;101598.09;;;20.94;35.68
64933;BME280;51446;53.850;10.662;2023-05-01T08:20:46;101608.09;;;21.39;35.55
64933;BME280;51446;53.850;10.662;2023-05-01T08:23:13;101597.75;;;20.50;35.40
64933;BME280;51446;53.850;10.662;2023-05-01T08:25:38;101591.59;;;20.43;36.33
64933;BME280;51446;53.850;10.662;2023-05-01T08:28:03;101597.03;;;21.04;36.32
64933;BME280;51446;53.850;10.662;2023-05-01T08:30:29;101604.88;;;20.47;36.10
64933;BME280;51446;53.850;10.662;2023-05-01T08:32:55;101595.72;;;20.72;35.61
64933;BME280;51446;53.850;10.662;2023-05-01T08:35:21;101591.19;;;20.79;36.40
64933;BME280;51446;53.850;10.662;2023-05-01T08:37:46;101588.78;;;20.57;35.72
64933;BME280;51446;53.850;10.662;2023-05-01T08:40:11;101591.22;;;21.37;35.12
64933;BME280;51446;53.850;10.662;2023-05-01T08:42:37;101599.25;;;21.90;34.02
64933;BME280;51446;53.850;10.662;2023-05-01T08:45:09;101586.53;;;21.54;35.86
64933;BME280;51446;53.850;10.662;2023-05-01T08:47:35;101586.34;;;21.06;33.13
64933;BME280;51446;53.850;10.662;2023-05-01T08:50:02;101580.06;;;20.44;34.30
64933;BME280;51446;53.850;10.662;2023-05-01T08:52:29;101577.44;;;20.41;34.44
64933;BME280;51446;53.850;10.662;2023-05-01T08:54:56;101574.16;;;20.18;34.51
64933;BME280;51446;53.850;10.662;2023-05-01T08:57:22;101574.94;;;20.26;35.15
64933;BME280;51446;53.850;10.662;2023-05-01T08:59:49;101571.59;;;20.10;35.24
64933;BME280;51446;53.850;10.662;2023-05-01T09:02:15;101570.34;;;21.06;33.20
64933;BME280;51446;53.850;10.662;2023-05-01T09:04:41;101572.19;;;21.60;33.09
64933;BME280;51446;53.850;10.662;2023-05-01T09:07:07;101559.31;;;21.83;33.12
64933;BME280;51446;53.850;10.662;2023-05-01T09:09:33;101558.63;;;22.19;31.57
64933;BME280;51446;53.850;10.662;2023-05-01T09:12:17;101558.63;;;20.52;32.83
64933;BME280;51446;53.850;10.662;2023-05-01T09:14:46;101561.47;;;21.05;31.60
64933;BME280;51446;53.850;10.662;2023-05-01T09:17:12;101558.00;;;21.56;32.47
64933;BME280;51446;53.850;10.662;2023-05-01T09:19:38;101539.31;;;21.00;32.27
64933;BME280;51446;53.850;10.662;2023-05-01T09:22:04;101532.13;;;22.10;34.39
64933;BME280;51446;53.850;10.662;2023-05-01T09:24:30;101531.44;;;21.98;33.88
64933;BME280;51446;53.850;10.662;2023-05-01T09:26:55;101532.25;;;22.02;33.57
64933;BME280;51446;53.850;10.662;2023-05-01T09:29:39;101514.63;;;22.39;32.50
64933;BME280;51446;53.850;10.662;2023-05-01T09:32:25;101516.13;;;22.90;31.58
64933;BME280;51446;53.850;10.662;2023-05-01T09:34:55;101514.34;;;23.62;29.62
64933;BME280;51446;53.850;10.662;2023-05-01T09:37:33;101509.41;;;22.73;29.94
64933;BME280;51446;53.850;10.662;2023-05-01T09:40:09;101520.66;;;22.88;29.62
64933;BME280;51446;53.850;10.662;2023-05-01T09:42:36;101517.28;;;23.53;30.79
64933;BME280;51446;53.850;10.662;2023-05-01T09:45:04;101506.44;;;23.23;28.61
64933;BME280;51446;53.850;10.662;2023-05-01T09:47:29;101499.34;;;23.55;29.32
64933;BME280;51446;53.850;10.662;2023-05-01T09:49:56;101505.84;;;23.46;29.34
64933;BME280;51446;53.850;10.662;2023-05-01T09:52:28;101511.94;;;23.17;28.46
64933;BME280;51446;53.850;10.662;2023-05-01T09:55:14;101502.50;;;23.36;27.82
64933;BME280;51446;53.850;10.662;2023-05-01T09:57:39;101494.03;;;23.53;28.53
64933;BME280;51446;53.850;10.662;2023-05-01T10:00:07;101494.84;;;24.81;28.03
64933;BME280;51446;53.850;10.662;2023-05-01T10:02:34;101494.34;;;23.76;27.73
64933;BME280;51446;53.850;10.662;2023-05-01T10:05:00;101486.19;;;23.13;28.56
64933;BME280;51446;53.850;10.662;2023-05-01T10:07:28;101497.84;;;23.09;27.89
64933;BME280;51446;53.850;10.662;2023-05-01T10:09:53;101484.81;;;21.71;29.43
64933;BME280;51446;53.850;10.662;2023-05-01T10:12:37;101475.03;;;21.70;27.63
64933;BME280;51446;53.850;10.662;2023-05-01T10:15:03;101487.44;;;21.73;28.12
64933;BME280;51446;53.850;10.662;2023-05-01T10:17:29;101470.78;;;21.60;28.75
64933;BME280;51446;53.850;10.662;2023-05-01T10:19:55;101474.00;;;21.26;29.61
64933;BME280;51446;53.850;10.662;2023-05-01T10:22:20;101474.88;;;21.28;30.54
64933;BME280;51446;53.850;10.662;2023-05-01T10:24:46;101478.28;;;20.83;31.83
64933;BME280;51446;53.850;10.662;2023-05-01T10:27:11;101467.22;;;22.05;31.68
64933;BME280;51446;53.850;10.662;2023-05-01T10:29:39;101471.03;;;22.35;31.10
64933;BME280;51446;53.850;10.662;2023-05-01T10:32:06;101461.00;;;22.46;29.83
64933;BME280;51446;53.850;10.662;2023-05-01T10:34:39;101461.41;;;21.84;31.14
64933;BME280;51446;53.850;10.662;2023-05-01T10:37:17;101458.78;;;21.33;30.97
64933;BME280;51446;53.850;10.662;2023-05-01T10:39:43;101452.28;;;21.47;31.22
64933;BME280;51446;53.850;10.662;2023-05-01T10:42:09;101455.66;;;21.07;32.49
64933;BME280;51446;53.850;10.662;2023-05-01T10:44:38;101435.88;;;21.21;30.75
64933;BME280;51446;53.850;10.662;2023-05-01T10:50:05;101439.72;;;22.42;31.36
64933;BME280;51446;53.850;10.662;2023-05-01T10:53:35;101431.81;;;21.51;30.20
64933;BME280;51446;53.850;10.662;2023-05-01T10:55:42;101428.97;;;21.59;30.81
64933;BME280;51446;53.850;10.662;2023-05-01T10:58:09;101431.25;;;22.20;31.28
64933;BME280;51446;53.850;10.662;2023-05-01T11:00:35;101425.50;;;21.55;30.14
64933;BME280;51446;53.850;10.662;2023-05-01T11:13:58;101419.13;;;21.62;29.34
64933;BME280;51446;53.850;10.662;2023-05-01T11:18:59;101414.22;;;23.00;26.92
64933;BME280;51446;53.850;10.662;2023-05-01T11:21:28;101404.88;;;23.18;27.65
64933;BME280;51446;53.850;10.662;2023-05-01T11:23:54;101403.66;;;23.30;27.07
64933;BME280;51446;53.850;10.662;2023-05-01T11:26:21;101407.34;;;23.90;26.01
64933;BME280;51446;53.850;10.662;2023-05-01T11:28:47;101395.47;;;23.99;26.75
64933;BME280;51446;53.850;10.662;2023-05-01T11:31:17;101394.72;;;24.52;27.08
64933;BME280;51446;53.850;10.662;2023-05-01T11:33:43;101396.25;;;23.40;26.21
64933;BME280;51446;53.850;10.662;2023-05-01T11:36:08;101391.47;;;21.67;28.47
64933;BME280;51446;53.850;10.662;2023-05-01T11:38:34;101384.72;;;22.30;28.19
64933;BME280;51446;53.850;10.662;2023-05-01T11:41:01;101387.19;;;22.77;26.79
64933;BME280;51446;53.850;10.662;2023-05-01T11:43:28;101381.84;;;22.77;26.26
64933;BME280;51446;53.850;10.662;2023-05-01T11:45:53;101371.88;;;22.07;28.08
64933;BME280;51446;53.850;10.662;2023-05-01T11:48:19;101367.72;;;21.53;29.09
64933;BME280;51446;53.850;10.662;2023-05-01T11:50:45;101369.44;;;21.07;29.96
64933;BME280;51446;53.850;10.662;2023-05-01T11:53:11;101368.91;;;21.35;30.56
64933;BME280;51446;53.850;10.662;2023-05-01T11:55:38;101360.31;;;21.67;30.62
64933;BME280;51446;53.850;10.662;2023-05-01T11:58:04;101350.28;;;21.78;29.49
64933;BME280;51446;53.850;10.662;2023-05-01T12:00:37;101353.69;;;21.41;30.36
64933;BME280;51446;53.850;10.662;2023-05-01T12:03:08;101357.13;;;21.90;29.76
64933;BME280;51446;53.850;10.662;2023-05-01T12:05:35;101355.88;;;22.07;29.77
64933;BME280;51446;53.850;10.662;2023-05-01T12:08:12;101339.25;;;21.52;30.76
64933;BME280;51446;53.850;10.662;2023-05-01T12:10:40;101347.72;;;21.74;28.70
64933;BME280;51446;53.850;10.662;2023-05-01T12:13:07;101341.41;;;21.76;28.63
64933;BME280;51446;53.850;10.662;2023-05-01T12:15:35;101330.97;;;21.65;28.97
64933;BME280;51446;53.850;10.662;2023-05-01T12:18:02;101339.00;;;21.65;29.60
64933;BME280;51446;53.850;10.662;2023-05-01T12:20:34;101341.09;;;21.48;29.27
64933;BME280;51446;53.850;10.662;2023-05-01T12:23:02;101327.13;;;21.35;29.45
64933;BME280;51446;53.850;10.662;2023-05-01T12:25:30;101338.19;;;20.63;31.10
64933;BME280;51446;53.850;10.662;2023-05-01T12:27:56;101327.50;;;20.65;30.62
64933;BME280;51446;53.850;10.662;2023-05-01T12:30:25;101320.59;;;21.06;29.84
64933;BME280;51446;53.850;10.662;2023-05-01T12:32:55;101320.03;;;20.89;30.97
64933;BME280;51446;53.850;10.662;2023-05-01T12:35:20;101319.63;;;21.10;30.89
64933;BME280;51446;53.850;10.662;2023-05-01T12:37:46;101314.59;;;21.39;29.95
64933;BME280;51446;53.850;10.662;2023-05-01T12:40:15;101310.72;;;20.60;29.40
64933;BME280;51446;53.850;10.662;2023-05-01T12:42:41;101309.91;;;20.55;31.05
64933;BME280;51446;53.850;10.662;2023-05-01T12:45:07;101298.22;;;20.63;30.50
64933;BME280;51446;53.850;10.662;2023-05-01T12:47:37;101303.69;;;21.06;29.85
64933;BME280;51446;53.850;10.662;2023-05-01T12:50:03;101297.69;;;21.40;30.39
64933;BME280;51446;53.850;10.662;2023-05-01T12:52:28;101300.91;;;21.57;29.42
64933;BME280;51446;53.850;10.662;2023-05-01T12:55:04;101287.06;;;20.41;29.47
64933;BME280;51446;53.850;10.662;2023-05-01T12:57:29;101290.03;;;20.23;30.22
64933;BME280;51446;53.850;10.662;2023-05-01T12:59:59;101296.25;;;20.76;31.06
64933;BME280;51446;53.850;10.662;2023-05-01T13:02:30;101286.84;;;20.54;30.68
64933;BME280;51446;53.850;10.662;2023-05-01T13:05:06;101280.84;;;20.41;30.09
64933;BME280;51446;53.850;10.662;2023-05-01T13:07:33;101277.47;;;20.83;30.53
64933;BME280;51446;53.850;10.662;2023-05-01T13:09:59;101274.38;;;21.04;30.81